CDT,Max TemperatureF,Mean TemperatureF,Min TemperatureF,Max Dew PointF,MeanDew PointF,Min DewpointF,Max Humidity, Mean Humidity, Min Humidity, Max Sea Level PressureIn, Mean Sea Level PressureIn, Min Sea Level PressureIn, Max VisibilityMiles, Mean VisibilityMiles, Min VisibilityMiles, Max Wind SpeedMPH, Mean Wind SpeedMPH, Max Gust SpeedMPH,PrecipitationIn, CloudCover, Events, WindDirDegrees
2012-10-1,72,58,43,54,42,32,64,46,28,30.09,30.03,29.93,10,10,7,28,13,33,0.01,3,Rain,334
2012-10-2,76,55,34,33,29,25,82,49,15,30.06,29.96,29.85,10,10,10,14,8,23,0.00,0,,217
2012-10-3,86,67,47,45,39,32,61,43,25,30.05,29.81,29.69,10,10,10,33,17,40,T,0,,188
2012-10-4,57,47,36,41,33,28,83,59,35,30.38,30.25,30.06,10,10,5,29,13,37,0.00,1,Rain-Thunderstorm,349
2012-10-5,52,42,32,29,26,21,78,55,32,30.41,30.36,30.32,10,10,10,16,8,20,0.00,3,,322
2012-10-6,45,35,25,28,20,15,85,58,31,30.45,30.39,30.35,10,10,10,16,8,21,0.00,1,,310
2012-10-7,57,41,25,35,27,24,100,66,32,30.37,30.21,30.02,10,10,10,24,13,39,0.00,0,,241
2012-10-8,76,57,37,35,27,19,79,46,12,30.01,29.88,29.77,10,10,10,26,12,31,0.00,0,,232
2012-10-9,59,46,33,41,29,19,77,51,24,30.21,29.99,29.82,10,10,10,31,13,37,0.00,0,,344
2012-10-10,68,48,28,29,26,22,78,50,22,30.26,30.16,30.01,10,10,10,22,10,28,0.00,0,,223
2012-10-11,61,49,37,34,30,25,62,50,37,30.36,30.12,29.97,10,10,10,31,14,38,0.00,0,,41
2012-10-12,51,41,30,44,30,20,77,59,40,30.37,30.22,29.98,10,10,10,22,11,26,0.00,5,,126
2012-10-13,77,64,50,59,53,43,100,75,50,29.93,29.77,29.59,10,9,1,24,13,30,0.48,5,Rain-Thunderstorm,201
2012-10-14,75,61,46,42,39,35,77,52,27,30.02,29.92,29.70,10,10,10,23,11,30,T,1,,329
2012-10-15,83,62,41,46,39,36,76,47,18,30.01,29.88,29.69,10,10,10,20,8,26,0.00,0,,214
2012-10-16,81,67,53,47,42,36,67,44,21,29.67,29.55,29.36,10,10,10,22,13,28,0.00,0,,247
2012-10-17,71,60,48,48,30,14,77,47,16,29.72,29.57,29.34,10,10,6,44,23,61,0.02,1,Rain,305
2012-10-18,53,49,45,32,25,19,58,45,31,29.79,29.71,29.66,10,10,7,49,31,63,T,4,,309
2012-10-19,60,50,40,35,32,30,73,53,33,29.88,29.84,29.79,10,10,10,35,16,46,0.00,3,,328
2012-10-20,75,56,36,39,34,28,92,56,20,29.82,29.72,29.64,10,10,10,17,9,22,0.00,0,,157
2012-10-21,80,61,41,56,43,37,82,58,33,29.80,29.71,29.65,10,10,10,18,7,23,0.00,0,,103
2012-10-22,56,52,47,52,49,45,100,83,66,29.88,29.83,29.76,10,3,0,20,10,24,0.01,8,Fog,356
2012-10-23,61,53,44,55,52,44,100,92,84,29.81,29.75,29.68,5,2,0,10,2,13,0.01,7,Fog,127
2012-10-24,52,47,41,52,47,37,100,88,76,29.85,29.80,29.77,10,3,0,26,15,32,0.10,8,Fog-Rain-Thunderstorm,18
2012-10-25,42,38,33,36,31,25,96,80,64,30.42,30.08,29.79,10,8,1,30,20,38,0.16,8,Rain-Snow-Thunderstorm,342
2012-10-26,42,34,25,25,23,21,84,66,48,30.58,30.50,30.43,10,10,10,20,10,24,0.00,5,,343
2012-10-27,46,36,25,28,26,22,85,65,45,30.43,30.34,30.23,10,10,10,17,10,22,0.00,3,,176
2012-10-28,54,40,25,31,28,23,92,65,38,30.29,30.22,30.14,10,10,10,22,11,26,0.00,4,,166
2012-10-29,64,50,36,35,32,29,76,54,32,30.14,30.09,30.04,10,10,10,16,9,22,0.00,1,,153
2012-10-30,61,48,35,34,33,31,85,61,36,30.06,30.03,29.98,10,10,10,13,6,16,0.00,1,,101
2012-10-31,73,54,35,41,36,31,89,59,29,30.07,30.03,29.96,10,10,10,9,4,15,0.00,1,,219